Аэропорт: Черновцы. Черновцы

ICAO: UKLN

METAR:
2022-01-28 08:30:00
UKLN 280830Z 23002MPS 180V280 9999 SCT///CB 04/M03 Q1010 NOSIG
METAR:
2022-01-28 05:13:00
TAF UKLN 280513Z 2806/2815 26005MPS 9999 BKN030 TX03/2812Z TN01/2806Z TEMPO 2806/2815?28008G13MPS 1500?SHSNRA BKN004 BKN020CB